sensor_id;sensor_type;location;lat;lon;timestamp;P1;durP1;ratioP1;P2;durP2;ratioP2
23232;SDS011;11785;49.500;8.288;2022-10-16T00:01:56;6.70;;;3.63;;
23232;SDS011;11785;49.500;8.288;2022-10-16T00:04:22;5.22;;;3.00;;
23232;SDS011;11785;49.500;8.288;2022-10-16T00:06:47;5.47;;;3.60;;
23232;SDS011;11785;49.500;8.288;2022-10-16T00:09:13;5.93;;;3.53;;
23232;SDS011;11785;49.500;8.288;2022-10-16T00:11:39;5.22;;;3.85;;
23232;SDS011;11785;49.500;8.288;2022-10-16T00:14:07;7.57;;;4.00;;
23232;SDS011;11785;49.500;8.288;2022-10-16T00:16:36;13.75;;;3.58;;
23232;SDS011;11785;49.500;8.288;2022-10-16T00:19:02;6.65;;;3.70;;
23232;SDS011;11785;49.500;8.288;2022-10-16T00:21:29;4.25;;;3.70;;
23232;SDS011;11785;49.500;8.288;2022-10-16T00:23:57;5.65;;;3.38;;
23232;SDS011;11785;49.500;8.288;2022-10-16T00:26:24;5.95;;;3.78;;
23232;SDS011;11785;49.500;8.288;2022-10-16T00:28:50;7.15;;;3.67;;
23232;SDS011;11785;49.500;8.288;2022-10-16T00:31:17;8.32;;;3.35;;
23232;SDS011;11785;49.500;8.288;2022-10-16T00:33:44;4.38;;;3.03;;
23232;SDS011;11785;49.500;8.288;2022-10-16T00:36:10;6.00;;;3.65;;
23232;SDS011;11785;49.500;8.288;2022-10-16T00:38:38;5.80;;;3.50;;
23232;SDS011;11785;49.500;8.288;2022-10-16T00:41:04;4.80;;;3.58;;
23232;SDS011;11785;49.500;8.288;2022-10-16T00:43:45;4.75;;;3.08;;
23232;SDS011;11785;49.500;8.288;2022-10-16T00:46:19;6.82;;;3.72;;
23232;SDS011;11785;49.500;8.288;2022-10-16T00:48:57;4.78;;;3.40;;
23232;SDS011;11785;49.500;8.288;2022-10-16T00:51:30;6.72;;;3.45;;
23232;SDS011;11785;49.500;8.288;2022-10-16T00:54:02;5.38;;;3.55;;
23232;SDS011;11785;49.500;8.288;2022-10-16T00:56:31;7.68;;;3.88;;
23232;SDS011;11785;49.500;8.288;2022-10-16T00:58:57;3.70;;;3.00;;
23232;SDS011;11785;49.500;8.288;2022-10-16T01:01:24;6.82;;;3.42;;
23232;SDS011;11785;49.500;8.288;2022-10-16T01:03:50;14.93;;;3.50;;
23232;SDS011;11785;49.500;8.288;2022-10-16T01:06:23;6.95;;;3.42;;
23232;SDS011;11785;49.500;8.288;2022-10-16T01:11:48;4.63;;;3.63;;
23232;SDS011;11785;49.500;8.288;2022-10-16T01:17:03;3.53;;;3.15;;
23232;SDS011;11785;49.500;8.288;2022-10-16T01:22:15;8.40;;;3.60;;
23232;SDS011;11785;49.500;8.288;2022-10-16T01:24:44;7.00;;;3.38;;
23232;SDS011;11785;49.500;8.288;2022-10-16T01:27:25;6.35;;;3.08;;
23232;SDS011;11785;49.500;8.288;2022-10-16T01:29:59;5.97;;;3.28;;
23232;SDS011;11785;49.500;8.288;2022-10-16T01:35:14;4.05;;;3.08;;
23232;SDS011;11785;49.500;8.288;2022-10-16T01:40:35;10.82;;;3.58;;
23232;SDS011;11785;49.500;8.288;2022-10-16T01:46:02;5.20;;;3.53;;
23232;SDS011;11785;49.500;8.288;2022-10-16T01:48:28;4.47;;;3.50;;
23232;SDS011;11785;49.500;8.288;2022-10-16T01:51:11;13.02;;;3.80;;
23232;SDS011;11785;49.500;8.288;2022-10-16T01:53:40;4.43;;;3.60;;
23232;SDS011;11785;49.500;8.288;2022-10-16T01:56:09;6.10;;;4.00;;
23232;SDS011;11785;49.500;8.288;2022-10-16T01:58:40;4.22;;;3.78;;
23232;SDS011;11785;49.500;8.288;2022-10-16T02:01:10;5.95;;;3.92;;
23232;SDS011;11785;49.500;8.288;2022-10-16T02:03:37;8.77;;;4.22;;
23232;SDS011;11785;49.500;8.288;2022-10-16T02:06:07;6.53;;;3.90;;
23232;SDS011;11785;49.500;8.288;2022-10-16T02:08:33;7.70;;;4.25;;
23232;SDS011;11785;49.500;8.288;2022-10-16T02:10:59;8.80;;;4.15;;
23232;SDS011;11785;49.500;8.288;2022-10-16T02:13:28;8.48;;;4.22;;
23232;SDS011;11785;49.500;8.288;2022-10-16T02:15:57;6.53;;;4.00;;
23232;SDS011;11785;49.500;8.288;2022-10-16T02:18:23;5.60;;;4.07;;
23232;SDS011;11785;49.500;8.288;2022-10-16T02:26:13;5.65;;;4.05;;
23232;SDS011;11785;49.500;8.288;2022-10-16T02:28:48;5.05;;;3.92;;
23232;SDS011;11785;49.500;8.288;2022-10-16T02:31:25;5.70;;;3.58;;
23232;SDS011;11785;49.500;8.288;2022-10-16T02:33:54;7.00;;;4.00;;
23232;SDS011;11785;49.500;8.288;2022-10-16T02:36:22;14.63;;;4.28;;
23232;SDS011;11785;49.500;8.288;2022-10-16T02:38:48;6.97;;;3.53;;
23232;SDS011;11785;49.500;8.288;2022-10-16T02:41:14;11.77;;;3.83;;
23232;SDS011;11785;49.500;8.288;2022-10-16T02:43:40;4.70;;;3.85;;
23232;SDS011;11785;49.500;8.288;2022-10-16T02:46:05;8.18;;;3.80;;
23232;SDS011;11785;49.500;8.288;2022-10-16T02:48:31;8.07;;;3.85;;
23232;SDS011;11785;49.500;8.288;2022-10-16T02:50:57;5.68;;;3.85;;
23232;SDS011;11785;49.500;8.288;2022-10-16T02:53:22;6.13;;;3.60;;
23232;SDS011;11785;49.500;8.288;2022-10-16T02:55:48;6.50;;;3.67;;
23232;SDS011;11785;49.500;8.288;2022-10-16T02:58:13;8.73;;;3.63;;
23232;SDS011;11785;49.500;8.288;2022-10-16T03:00:39;7.78;;;3.88;;
23232;SDS011;11785;49.500;8.288;2022-10-16T03:03:04;6.65;;;3.92;;
23232;SDS011;11785;49.500;8.288;2022-10-16T03:05:30;9.32;;;3.88;;
23232;SDS011;11785;49.500;8.288;2022-10-16T03:07:56;5.65;;;3.75;;
23232;SDS011;11785;49.500;8.288;2022-10-16T03:10:21;4.68;;;3.67;;
23232;SDS011;11785;49.500;8.288;2022-10-16T03:12:47;5.32;;;3.42;;
23232;SDS011;11785;49.500;8.288;2022-10-16T03:15:12;9.02;;;3.85;;
23232;SDS011;11785;49.500;8.288;2022-10-16T03:17:38;6.32;;;4.03;;
23232;SDS011;11785;49.500;8.288;2022-10-16T03:20:03;10.90;;;3.85;;
23232;SDS011;11785;49.500;8.288;2022-10-16T03:22:29;7.35;;;3.72;;
23232;SDS011;11785;49.500;8.288;2022-10-16T03:24:55;5.57;;;3.85;;
23232;SDS011;11785;49.500;8.288;2022-10-16T03:27:20;4.97;;;3.25;;
23232;SDS011;11785;49.500;8.288;2022-10-16T03:29:46;10.90;;;3.45;;
23232;SDS011;11785;49.500;8.288;2022-10-16T03:32:11;3.90;;;3.50;;
23232;SDS011;11785;49.500;8.288;2022-10-16T03:34:37;6.82;;;3.80;;
23232;SDS011;11785;49.500;8.288;2022-10-16T03:37:03;4.88;;;3.47;;
23232;SDS011;11785;49.500;8.288;2022-10-16T03:39:28;8.25;;;3.33;;
23232;SDS011;11785;49.500;8.288;2022-10-16T03:41:54;4.95;;;3.28;;
23232;SDS011;11785;49.500;8.288;2022-10-16T03:44:19;5.38;;;4.07;;
23232;SDS011;11785;49.500;8.288;2022-10-16T03:46:45;5.30;;;3.67;;
23232;SDS011;11785;49.500;8.288;2022-10-16T03:49:10;5.38;;;3.55;;
23232;SDS011;11785;49.500;8.288;2022-10-16T03:51:36;7.90;;;3.40;;
23232;SDS011;11785;49.500;8.288;2022-10-16T03:54:02;6.45;;;3.55;;
23232;SDS011;11785;49.500;8.288;2022-10-16T03:56:27;3.42;;;3.13;;
23232;SDS011;11785;49.500;8.288;2022-10-16T03:58:53;11.52;;;3.50;;
23232;SDS011;11785;49.500;8.288;2022-10-16T04:01:18;4.50;;;3.70;;
23232;SDS011;11785;49.500;8.288;2022-10-16T04:03:44;3.30;;;3.00;;
23232;SDS011;11785;49.500;8.288;2022-10-16T04:06:09;6.18;;;3.38;;
23232;SDS011;11785;49.500;8.288;2022-10-16T04:08:35;7.60;;;3.25;;
23232;SDS011;11785;49.500;8.288;2022-10-16T04:11:02;6.30;;;3.90;;
23232;SDS011;11785;49.500;8.288;2022-10-16T04:13:28;6.72;;;3.58;;
23232;SDS011;11785;49.500;8.288;2022-10-16T04:15:53;8.40;;;3.50;;
23232;SDS011;11785;49.500;8.288;2022-10-16T04:18:19;4.35;;;3.63;;
23232;SDS011;11785;49.500;8.288;2022-10-16T04:20:45;5.85;;;3.80;;
23232;SDS011;11785;49.500;8.288;2022-10-16T04:23:10;8.02;;;4.00;;
23232;SDS011;11785;49.500;8.288;2022-10-16T04:25:36;7.53;;;3.95;;
23232;SDS011;11785;49.500;8.288;2022-10-16T04:28:01;7.70;;;4.18;;
23232;SDS011;11785;49.500;8.288;2022-10-16T04:30:27;6.97;;;4.13;;
23232;SDS011;11785;49.500;8.288;2022-10-16T04:32:52;5.88;;;4.07;;
23232;SDS011;11785;49.500;8.288;2022-10-16T04:35:18;10.73;;;4.00;;
23232;SDS011;11785;49.500;8.288;2022-10-16T04:37:45;11.32;;;4.15;;
23232;SDS011;11785;49.500;8.288;2022-10-16T04:40:11;7.20;;;4.03;;
23232;SDS011;11785;49.500;8.288;2022-10-16T04:42:36;13.45;;;4.30;;
23232;SDS011;11785;49.500;8.288;2022-10-16T04:45:02;6.40;;;4.22;;
23232;SDS011;11785;49.500;8.288;2022-10-16T04:47:29;9.48;;;3.75;;
23232;SDS011;11785;49.500;8.288;2022-10-16T04:49:54;5.93;;;4.20;;
23232;SDS011;11785;49.500;8.288;2022-10-16T04:52:21;5.72;;;3.67;;
23232;SDS011;11785;49.500;8.288;2022-10-16T04:54:49;5.53;;;4.05;;
23232;SDS011;11785;49.500;8.288;2022-10-16T04:57:15;6.75;;;4.22;;
23232;SDS011;11785;49.500;8.288;2022-10-16T04:59:41;7.80;;;3.72;;
23232;SDS011;11785;49.500;8.288;2022-10-16T05:02:07;6.57;;;3.78;;
23232;SDS011;11785;49.500;8.288;2022-10-16T05:04:32;5.95;;;3.97;;
23232;SDS011;11785;49.500;8.288;2022-10-16T05:06:58;7.15;;;4.22;;
23232;SDS011;11785;49.500;8.288;2022-10-16T05:09:23;4.85;;;3.78;;
23232;SDS011;11785;49.500;8.288;2022-10-16T05:11:49;7.85;;;4.18;;
23232;SDS011;11785;49.500;8.288;2022-10-16T05:14:14;14.55;;;4.30;;
23232;SDS011;11785;49.500;8.288;2022-10-16T05:16:40;5.00;;;3.63;;
23232;SDS011;11785;49.500;8.288;2022-10-16T05:19:06;7.20;;;4.50;;
23232;SDS011;11785;49.500;8.288;2022-10-16T05:21:31;12.82;;;3.80;;
23232;SDS011;11785;49.500;8.288;2022-10-16T05:23:57;7.40;;;3.75;;
23232;SDS011;11785;49.500;8.288;2022-10-16T05:26:22;8.20;;;3.97;;
23232;SDS011;11785;49.500;8.288;2022-10-16T05:28:49;7.97;;;3.75;;
23232;SDS011;11785;49.500;8.288;2022-10-16T05:31:14;7.47;;;3.83;;
23232;SDS011;11785;49.500;8.288;2022-10-16T05:33:40;7.90;;;4.20;;
23232;SDS011;11785;49.500;8.288;2022-10-16T05:36:06;5.80;;;3.92;;
23232;SDS011;11785;49.500;8.288;2022-10-16T05:38:34;8.30;;;4.25;;
23232;SDS011;11785;49.500;8.288;2022-10-16T05:41:00;8.25;;;4.22;;
23232;SDS011;11785;49.500;8.288;2022-10-16T05:43:27;7.22;;;4.20;;
23232;SDS011;11785;49.500;8.288;2022-10-16T05:46:00;6.80;;;4.10;;
23232;SDS011;11785;49.500;8.288;2022-10-16T05:48:27;5.55;;;4.15;;
23232;SDS011;11785;49.500;8.288;2022-10-16T05:50:56;6.30;;;4.15;;
23232;SDS011;11785;49.500;8.288;2022-10-16T05:53:27;7.72;;;4.63;;
23232;SDS011;11785;49.500;8.288;2022-10-16T05:55:54;10.30;;;3.83;;
23232;SDS011;11785;49.500;8.288;2022-10-16T05:58:21;5.97;;;3.92;;
23232;SDS011;11785;49.500;8.288;2022-10-16T06:00:57;7.07;;;4.15;;
23232;SDS011;11785;49.500;8.288;2022-10-16T06:03:24;5.68;;;4.45;;
23232;SDS011;11785;49.500;8.288;2022-10-16T06:05:50;6.13;;;4.35;;
23232;SDS011;11785;49.500;8.288;2022-10-16T06:08:17;6.50;;;4.28;;
23232;SDS011;11785;49.500;8.288;2022-10-16T06:10:44;7.03;;;4.28;;
23232;SDS011;11785;49.500;8.288;2022-10-16T06:13:10;10.35;;;4.30;;
23232;SDS011;11785;49.500;8.288;2022-10-16T06:15:37;9.90;;;4.10;;
23232;SDS011;11785;49.500;8.288;2022-10-16T06:18:04;10.80;;;3.83;;
23232;SDS011;11785;49.500;8.288;2022-10-16T06:20:30;6.32;;;4.97;;
23232;SDS011;11785;49.500;8.288;2022-10-16T06:22:56;6.85;;;4.20;;
23232;SDS011;11785;49.500;8.288;2022-10-16T06:25:22;4.40;;;4.00;;
23232;SDS011;11785;49.500;8.288;2022-10-16T06:27:47;6.22;;;3.90;;
23232;SDS011;11785;49.500;8.288;2022-10-16T06:30:13;10.93;;;4.10;;
23232;SDS011;11785;49.500;8.288;2022-10-16T06:32:38;5.70;;;4.10;;
23232;SDS011;11785;49.500;8.288;2022-10-16T06:35:04;8.35;;;4.40;;
23232;SDS011;11785;49.500;8.288;2022-10-16T06:37:30;4.88;;;3.70;;
23232;SDS011;11785;49.500;8.288;2022-10-16T06:39:55;11.35;;;5.00;;
23232;SDS011;11785;49.500;8.288;2022-10-16T06:42:21;7.28;;;4.13;;
23232;SDS011;11785;49.500;8.288;2022-10-16T06:44:46;9.15;;;4.30;;
23232;SDS011;11785;49.500;8.288;2022-10-16T06:47:12;7.97;;;4.45;;
23232;SDS011;11785;49.500;8.288;2022-10-16T06:49:37;8.00;;;4.82;;
23232;SDS011;11785;49.500;8.288;2022-10-16T06:52:03;6.85;;;4.93;;
23232;SDS011;11785;49.500;8.288;2022-10-16T06:54:29;10.75;;;5.22;;
23232;SDS011;11785;49.500;8.288;2022-10-16T06:56:55;8.68;;;5.55;;
23232;SDS011;11785;49.500;8.288;2022-10-16T06:59:21;9.18;;;4.95;;
23232;SDS011;11785;49.500;8.288;2022-10-16T07:01:47;6.10;;;4.43;;
23232;SDS011;11785;49.500;8.288;2022-10-16T07:04:12;6.45;;;4.72;;
23232;SDS011;11785;49.500;8.288;2022-10-16T07:06:38;8.65;;;4.28;;
23232;SDS011;11785;49.500;8.288;2022-10-16T07:09:05;8.00;;;4.40;;
23232;SDS011;11785;49.500;8.288;2022-10-16T07:11:34;6.38;;;4.05;;
23232;SDS011;11785;49.500;8.288;2022-10-16T07:13:59;7.53;;;4.10;;
23232;SDS011;11785;49.500;8.288;2022-10-16T07:16:26;10.98;;;4.28;;
23232;SDS011;11785;49.500;8.288;2022-10-16T07:18:56;9.05;;;4.30;;
23232;SDS011;11785;49.500;8.288;2022-10-16T07:21:24;10.82;;;4.65;;
23232;SDS011;11785;49.500;8.288;2022-10-16T07:23:51;5.30;;;4.40;;
23232;SDS011;11785;49.500;8.288;2022-10-16T07:26:21;6.15;;;3.85;;
23232;SDS011;11785;49.500;8.288;2022-10-16T07:28:48;5.85;;;3.50;;
23232;SDS011;11785;49.500;8.288;2022-10-16T07:31:14;7.80;;;4.15;;
23232;SDS011;11785;49.500;8.288;2022-10-16T07:33:41;10.68;;;3.88;;
23232;SDS011;11785;49.500;8.288;2022-10-16T07:36:09;6.38;;;4.03;;
23232;SDS011;11785;49.500;8.288;2022-10-16T07:38:35;5.22;;;3.70;;
23232;SDS011;11785;49.500;8.288;2022-10-16T07:41:02;5.55;;;4.10;;
23232;SDS011;11785;49.500;8.288;2022-10-16T07:43:29;8.20;;;4.15;;
23232;SDS011;11785;49.500;8.288;2022-10-16T07:45:55;5.97;;;4.47;;
23232;SDS011;11785;49.500;8.288;2022-10-16T07:48:21;12.32;;;4.15;;
23232;SDS011;11785;49.500;8.288;2022-10-16T07:50:48;14.40;;;5.88;;
23232;SDS011;11785;49.500;8.288;2022-10-16T07:53:14;6.03;;;4.50;;
23232;SDS011;11785;49.500;8.288;2022-10-16T07:55:39;9.48;;;4.60;;
23232;SDS011;11785;49.500;8.288;2022-10-16T07:58:05;7.57;;;4.35;;
23232;SDS011;11785;49.500;8.288;2022-10-16T08:00:31;10.35;;;4.78;;
23232;SDS011;11785;49.500;8.288;2022-10-16T08:02:57;6.30;;;3.88;;
23232;SDS011;11785;49.500;8.288;2022-10-16T08:05:30;12.02;;;4.90;;
23232;SDS011;11785;49.500;8.288;2022-10-16T08:07:57;11.73;;;4.85;;
23232;SDS011;11785;49.500;8.288;2022-10-16T08:10:24;11.05;;;4.32;;
23232;SDS011;11785;49.500;8.288;2022-10-16T08:12:51;7.68;;;4.32;;
23232;SDS011;11785;49.500;8.288;2022-10-16T08:15:17;10.23;;;4.60;;
23232;SDS011;11785;49.500;8.288;2022-10-16T08:17:43;8.77;;;5.10;;
23232;SDS011;11785;49.500;8.288;2022-10-16T08:20:09;10.52;;;5.35;;
23232;SDS011;11785;49.500;8.288;2022-10-16T08:22:35;14.25;;;4.80;;
23232;SDS011;11785;49.500;8.288;2022-10-16T08:25:00;11.02;;;4.65;;
23232;SDS011;11785;49.500;8.288;2022-10-16T08:27:31;9.48;;;4.78;;
23232;SDS011;11785;49.500;8.288;2022-10-16T08:29:57;8.85;;;4.55;;
23232;SDS011;11785;49.500;8.288;2022-10-16T08:32:22;5.97;;;4.38;;
23232;SDS011;11785;49.500;8.288;2022-10-16T08:34:48;19.67;;;5.60;;
23232;SDS011;11785;49.500;8.288;2022-10-16T08:37:13;10.23;;;5.22;;
23232;SDS011;11785;49.500;8.288;2022-10-16T08:39:39;16.40;;;6.00;;
23232;SDS011;11785;49.500;8.288;2022-10-16T08:50:37;10.75;;;6.55;;
23232;SDS011;11785;49.500;8.288;2022-10-16T08:53:04;15.40;;;7.15;;
23232;SDS011;11785;49.500;8.288;2022-10-16T09:01:03;14.05;;;6.28;;
23232;SDS011;11785;49.500;8.288;2022-10-16T09:20:19;5.40;;;3.92;;
23232;SDS011;11785;49.500;8.288;2022-10-16T09:22:53;8.40;;;4.45;;
23232;SDS011;11785;49.500;8.288;2022-10-16T09:25:42;5.10;;;4.13;;
23232;SDS011;11785;49.500;8.288;2022-10-16T09:28:09;5.35;;;4.35;;
23232;SDS011;11785;49.500;8.288;2022-10-16T09:30:35;5.30;;;3.72;;
23232;SDS011;11785;49.500;8.288;2022-10-16T09:33:02;9.93;;;4.57;;
23232;SDS011;11785;49.500;8.288;2022-10-16T09:35:33;7.03;;;4.25;;
23232;SDS011;11785;49.500;8.288;2022-10-16T09:38:07;7.65;;;3.90;;
23232;SDS011;11785;49.500;8.288;2022-10-16T09:40:34;7.40;;;3.80;;
23232;SDS011;11785;49.500;8.288;2022-10-16T09:43:03;6.68;;;4.40;;
23232;SDS011;11785;49.500;8.288;2022-10-16T09:45:42;6.15;;;4.38;;
23232;SDS011;11785;49.500;8.288;2022-10-16T09:48:18;10.65;;;5.05;;
23232;SDS011;11785;49.500;8.288;2022-10-16T09:50:54;7.13;;;4.65;;
23232;SDS011;11785;49.500;8.288;2022-10-16T09:53:38;4.80;;;4.35;;
23232;SDS011;11785;49.500;8.288;2022-10-16T09:56:09;8.25;;;4.13;;
23232;SDS011;11785;49.500;8.288;2022-10-16T09:58:41;11.68;;;3.95;;
23232;SDS011;11785;49.500;8.288;2022-10-16T10:01:12;7.75;;;4.35;;
23232;SDS011;11785;49.500;8.288;2022-10-16T10:03:40;4.57;;;3.40;;
23232;SDS011;11785;49.500;8.288;2022-10-16T10:06:29;6.03;;;3.80;;
23232;SDS011;11785;49.500;8.288;2022-10-16T10:09:03;4.47;;;3.50;;
23232;SDS011;11785;49.500;8.288;2022-10-16T10:14:22;5.45;;;3.58;;
23232;SDS011;11785;49.500;8.288;2022-10-16T10:16:52;6.43;;;4.03;;
23232;SDS011;11785;49.500;8.288;2022-10-16T10:19:27;6.78;;;3.08;;
23232;SDS011;11785;49.500;8.288;2022-10-16T10:21:53;6.10;;;3.00;;
23232;SDS011;11785;49.500;8.288;2022-10-16T10:24:19;6.35;;;3.08;;
23232;SDS011;11785;49.500;8.288;2022-10-16T10:26:47;7.40;;;2.80;;
23232;SDS011;11785;49.500;8.288;2022-10-16T10:30:18;8.68;;;3.35;;
23232;SDS011;11785;49.500;8.288;2022-10-16T10:37:33;7.50;;;3.83;;
23232;SDS011;11785;49.500;8.288;2022-10-16T10:40:31;7.18;;;3.60;;
23232;SDS011;11785;49.500;8.288;2022-10-16T10:45:52;4.50;;;3.03;;
23232;SDS011;11785;49.500;8.288;2022-10-16T10:51:24;6.07;;;2.97;;
23232;SDS011;11785;49.500;8.288;2022-10-16T10:54:11;4.38;;;2.90;;
23232;SDS011;11785;49.500;8.288;2022-10-16T10:56:55;5.03;;;2.95;;
23232;SDS011;11785;49.500;8.288;2022-10-16T11:05:10;8.15;;;3.13;;
23232;SDS011;11785;49.500;8.288;2022-10-16T11:07:43;4.75;;;2.20;;
23232;SDS011;11785;49.500;8.288;2022-10-16T11:12:47;9.38;;;2.75;;
23232;SDS011;11785;49.500;8.288;2022-10-16T11:15:21;8.05;;;3.10;;
23232;SDS011;11785;49.500;8.288;2022-10-16T11:17:58;5.72;;;2.58;;
23232;SDS011;11785;49.500;8.288;2022-10-16T11:20:26;13.02;;;2.90;;
23232;SDS011;11785;49.500;8.288;2022-10-16T11:22:58;5.25;;;2.35;;
23232;SDS011;11785;49.500;8.288;2022-10-16T11:25:39;6.53;;;1.90;;
23232;SDS011;11785;49.500;8.288;2022-10-16T11:31:00;6.97;;;2.97;;
23232;SDS011;11785;49.500;8.288;2022-10-16T11:33:55;2.53;;;2.33;;
23232;SDS011;11785;49.500;8.288;2022-10-16T11:36:41;3.28;;;2.20;;
23232;SDS011;11785;49.500;8.288;2022-10-16T11:39:20;4.65;;;1.98;;
23232;SDS011;11785;49.500;8.288;2022-10-16T11:44:55;4.53;;;2.20;;
23232;SDS011;11785;49.500;8.288;2022-10-16T11:47:37;3.35;;;1.95;;
23232;SDS011;11785;49.500;8.288;2022-10-16T11:53:03;5.20;;;1.77;;
23232;SDS011;11785;49.500;8.288;2022-10-16T11:55:41;3.92;;;1.73;;
23232;SDS011;11785;49.500;8.288;2022-10-16T12:00:59;1.70;;;1.55;;
23232;SDS011;11785;49.500;8.288;2022-10-16T12:08:45;2.78;;;1.80;;
23232;SDS011;11785;49.500;8.288;2022-10-16T12:14:05;5.03;;;1.67;;
23232;SDS011;11785;49.500;8.288;2022-10-16T12:16:38;5.35;;;2.40;;
23232;SDS011;11785;49.500;8.288;2022-10-16T12:19:15;5.93;;;2.47;;
23232;SDS011;11785;49.500;8.288;2022-10-16T12:21:42;4.93;;;3.72;;
23232;SDS011;11785;49.500;8.288;2022-10-16T12:27:06;13.10;;;6.22;;
23232;SDS011;11785;49.500;8.288;2022-10-16T12:30:03;5.00;;;2.20;;
23232;SDS011;11785;49.500;8.288;2022-10-16T12:32:37;4.30;;;2.90;;
23232;SDS011;11785;49.500;8.288;2022-10-16T12:35:04;2.92;;;2.25;;
23232;SDS011;11785;49.500;8.288;2022-10-16T12:37:42;6.45;;;3.10;;
23232;SDS011;11785;49.500;8.288;2022-10-16T12:42:48;2.80;;;1.88;;
23232;SDS011;11785;49.500;8.288;2022-10-16T12:45:30;5.18;;;2.03;;
23232;SDS011;11785;49.500;8.288;2022-10-16T12:48:04;4.18;;;1.90;;
23232;SDS011;11785;49.500;8.288;2022-10-16T12:50:43;3.35;;;1.73;;
23232;SDS011;11785;49.500;8.288;2022-10-16T12:53:42;5.75;;;2.30;;
23232;SDS011;11785;49.500;8.288;2022-10-16T13:01:21;7.45;;;2.95;;
23232;SDS011;11785;49.500;8.288;2022-10-16T13:06:51;4.40;;;2.15;;
23232;SDS011;11785;49.500;8.288;2022-10-16T13:09:32;6.57;;;2.10;;
23232;SDS011;11785;49.500;8.288;2022-10-16T13:12:10;13.05;;;2.63;;
23232;SDS011;11785;49.500;8.288;2022-10-16T13:15:08;5.10;;;2.70;;
23232;SDS011;11785;49.500;8.288;2022-10-16T13:18:00;3.65;;;2.20;;
23232;SDS011;11785;49.500;8.288;2022-10-16T13:20:37;5.28;;;2.30;;
23232;SDS011;11785;49.500;8.288;2022-10-16T13:23:13;7.32;;;2.50;;
23232;SDS011;11785;49.500;8.288;2022-10-16T13:26:08;4.07;;;2.25;;
23232;SDS011;11785;49.500;8.288;2022-10-16T13:29:13;13.43;;;2.88;;
23232;SDS011;11785;49.500;8.288;2022-10-16T13:31:39;5.22;;;2.38;;
23232;SDS011;11785;49.500;8.288;2022-10-16T13:34:05;4.10;;;2.47;;
23232;SDS011;11785;49.500;8.288;2022-10-16T13:36:44;4.82;;;3.05;;
23232;SDS011;11785;49.500;8.288;2022-10-16T13:39:19;7.18;;;2.60;;
23232;SDS011;11785;49.500;8.288;2022-10-16T13:42:03;5.15;;;2.60;;
23232;SDS011;11785;49.500;8.288;2022-10-16T13:44:41;7.05;;;2.63;;
23232;SDS011;11785;49.500;8.288;2022-10-16T13:47:42;2.70;;;2.22;;
23232;SDS011;11785;49.500;8.288;2022-10-16T13:50:05;3.90;;;2.25;;
23232;SDS011;11785;49.500;8.288;2022-10-16T13:52:36;5.90;;;2.50;;
23232;SDS011;11785;49.500;8.288;2022-10-16T13:55:03;5.88;;;2.83;;
23232;SDS011;11785;49.500;8.288;2022-10-16T13:57:32;4.03;;;2.70;;
23232;SDS011;11785;49.500;8.288;2022-10-16T13:59:58;3.10;;;2.47;;
23232;SDS011;11785;49.500;8.288;2022-10-16T14:02:28;8.00;;;2.90;;
23232;SDS011;11785;49.500;8.288;2022-10-16T14:05:00;3.78;;;2.55;;
23232;SDS011;11785;49.500;8.288;2022-10-16T14:07:29;7.32;;;2.25;;
23232;SDS011;11785;49.500;8.288;2022-10-16T14:10:00;7.25;;;2.83;;
23232;SDS011;11785;49.500;8.288;2022-10-16T14:12:28;4.25;;;2.40;;
23232;SDS011;11785;49.500;8.288;2022-10-16T14:14:54;7.32;;;2.65;;
23232;SDS011;11785;49.500;8.288;2022-10-16T14:17:23;4.75;;;2.50;;
23232;SDS011;11785;49.500;8.288;2022-10-16T14:19:54;5.15;;;2.58;;
23232;SDS011;11785;49.500;8.288;2022-10-16T14:24:58;10.48;;;2.75;;
23232;SDS011;11785;49.500;8.288;2022-10-16T14:27:32;5.78;;;2.60;;
23232;SDS011;11785;49.500;8.288;2022-10-16T14:32:40;4.55;;;2.13;;
23232;SDS011;11785;49.500;8.288;2022-10-16T14:35:27;3.92;;;2.40;;
23232;SDS011;11785;49.500;8.288;2022-10-16T14:37:55;4.50;;;2.47;;
23232;SDS011;11785;49.500;8.288;2022-10-16T14:40:23;4.43;;;2.55;;
23232;SDS011;11785;49.500;8.288;2022-10-16T14:42:51;5.32;;;2.40;;
23232;SDS011;11785;49.500;8.288;2022-10-16T14:45:25;5.35;;;2.40;;
23232;SDS011;11785;49.500;8.288;2022-10-16T14:47:57;11.68;;;2.50;;
23232;SDS011;11785;49.500;8.288;2022-10-16T14:50:31;3.22;;;2.10;;
23232;SDS011;11785;49.500;8.288;2022-10-16T14:52:56;5.95;;;2.40;;
23232;SDS011;11785;49.500;8.288;2022-10-16T14:55:23;3.70;;;2.72;;
23232;SDS011;11785;49.500;8.288;2022-10-16T14:57:50;7.90;;;3.33;;
23232;SDS011;11785;49.500;8.288;2022-10-16T15:02:44;5.95;;;2.17;;
23232;SDS011;11785;49.500;8.288;2022-10-16T15:05:12;5.53;;;2.38;;
23232;SDS011;11785;49.500;8.288;2022-10-16T15:07:45;4.55;;;2.75;;
23232;SDS011;11785;49.500;8.288;2022-10-16T15:10:14;5.43;;;2.08;;
23232;SDS011;11785;49.500;8.288;2022-10-16T15:12:41;2.38;;;2.15;;
23232;SDS011;11785;49.500;8.288;2022-10-16T15:17:50;9.55;;;2.35;;
23232;SDS011;11785;49.500;8.288;2022-10-16T15:20:22;5.47;;;2.30;;
23232;SDS011;11785;49.500;8.288;2022-10-16T15:22:49;3.83;;;2.20;;
23232;SDS011;11785;49.500;8.288;2022-10-16T15:25:31;3.20;;;2.15;;
23232;SDS011;11785;49.500;8.288;2022-10-16T15:28:08;6.88;;;2.08;;
23232;SDS011;11785;49.500;8.288;2022-10-16T15:30:35;4.70;;;2.33;;
23232;SDS011;11785;49.500;8.288;2022-10-16T15:33:01;9.82;;;2.40;;
23232;SDS011;11785;49.500;8.288;2022-10-16T15:35:28;3.78;;;1.90;;
23232;SDS011;11785;49.500;8.288;2022-10-16T15:37:53;6.25;;;2.42;;
23232;SDS011;11785;49.500;8.288;2022-10-16T15:40:19;2.15;;;2.00;;
23232;SDS011;11785;49.500;8.288;2022-10-16T15:42:45;4.00;;;2.22;;
23232;SDS011;11785;49.500;8.288;2022-10-16T15:45:12;4.80;;;2.50;;
23232;SDS011;11785;49.500;8.288;2022-10-16T15:47:38;4.38;;;2.13;;
23232;SDS011;11785;49.500;8.288;2022-10-16T15:50:05;9.05;;;2.30;;
23232;SDS011;11785;49.500;8.288;2022-10-16T15:52:31;6.05;;;2.33;;
23232;SDS011;11785;49.500;8.288;2022-10-16T15:54:57;3.97;;;2.30;;
23232;SDS011;11785;49.500;8.288;2022-10-16T15:57:23;6.53;;;2.35;;
23232;SDS011;11785;49.500;8.288;2022-10-16T15:59:49;7.28;;;2.38;;
23232;SDS011;11785;49.500;8.288;2022-10-16T16:02:15;3.63;;;2.53;;
23232;SDS011;11785;49.500;8.288;2022-10-16T16:04:41;5.82;;;2.78;;
23232;SDS011;11785;49.500;8.288;2022-10-16T16:07:07;7.50;;;2.95;;
23232;SDS011;11785;49.500;8.288;2022-10-16T16:09:33;9.90;;;2.88;;
23232;SDS011;11785;49.500;8.288;2022-10-16T16:11:58;5.20;;;2.80;;
23232;SDS011;11785;49.500;8.288;2022-10-16T16:14:25;3.35;;;2.65;;
23232;SDS011;11785;49.500;8.288;2022-10-16T16:16:53;5.45;;;2.70;;
23232;SDS011;11785;49.500;8.288;2022-10-16T16:19:22;6.60;;;3.13;;
23232;SDS011;11785;49.500;8.288;2022-10-16T16:21:48;6.78;;;4.00;;
23232;SDS011;11785;49.500;8.288;2022-10-16T16:24:14;6.88;;;3.90;;
23232;SDS011;11785;49.500;8.288;2022-10-16T16:26:40;4.20;;;3.30;;
23232;SDS011;11785;49.500;8.288;2022-10-16T16:29:09;8.55;;;3.33;;
23232;SDS011;11785;49.500;8.288;2022-10-16T16:31:38;4.78;;;3.35;;
23232;SDS011;11785;49.500;8.288;2022-10-16T16:34:04;4.32;;;3.08;;
23232;SDS011;11785;49.500;8.288;2022-10-16T16:36:30;9.90;;;3.45;;
23232;SDS011;11785;49.500;8.288;2022-10-16T16:38:56;6.70;;;3.25;;
23232;SDS011;11785;49.500;8.288;2022-10-16T16:41:23;10.50;;;3.95;;
23232;SDS011;11785;49.500;8.288;2022-10-16T16:43:51;4.20;;;3.30;;
23232;SDS011;11785;49.500;8.288;2022-10-16T16:46:17;6.85;;;3.53;;
23232;SDS011;11785;49.500;8.288;2022-10-16T16:48:44;9.88;;;3.50;;
23232;SDS011;11785;49.500;8.288;2022-10-16T16:51:11;5.72;;;3.08;;
23232;SDS011;11785;49.500;8.288;2022-10-16T16:53:41;6.03;;;3.92;;
23232;SDS011;11785;49.500;8.288;2022-10-16T16:56:08;6.75;;;3.60;;
23232;SDS011;11785;49.500;8.288;2022-10-16T16:58:33;5.20;;;3.85;;